createdAt,value
2023-03-04T00:04:46.204Z,37.90
2023-03-04T00:09:45.545Z,34.92
2023-03-04T00:14:42.039Z,29.65
2023-03-04T00:19:38.495Z,35.78
2023-03-04T00:24:35.205Z,26.95
2023-03-04T00:29:31.582Z,32.30
2023-03-04T00:34:27.961Z,27.65
2023-03-04T00:39:24.822Z,26.33
2023-03-04T00:44:21.515Z,21.77
2023-03-04T00:49:17.888Z,26.58
2023-03-04T00:54:14.273Z,25.63
2023-03-04T00:59:10.644Z,27.85
2023-03-04T01:04:07.124Z,20.27
2023-03-04T01:09:03.704Z,18.08
2023-03-04T01:14:00.141Z,18.33
2023-03-04T01:18:56.500Z,24.70
2023-03-04T01:23:52.870Z,17.80
2023-03-04T01:28:49.265Z,19.05
2023-03-04T01:33:45.722Z,18.83
2023-03-04T01:38:42.182Z,14.65
2023-03-04T01:43:39.030Z,11.10
2023-03-04T01:48:38.108Z,26.23
2023-03-04T01:53:34.539Z,24.83
2023-03-04T01:58:32.645Z,16.55
2023-03-04T02:03:29.192Z,19.10
2023-03-04T02:08:25.701Z,15.70
2023-03-04T02:13:22.138Z,10.88
2023-03-04T02:18:21.621Z,17.77
2023-03-04T02:23:35.325Z,18.42
2023-03-04T02:28:31.749Z,18.98
2023-03-04T02:33:28.326Z,14.43
2023-03-04T02:38:25.075Z,11.60
2023-03-04T02:43:21.615Z,19.40
2023-03-04T02:48:21.804Z,12.13
2023-03-04T02:53:20.652Z,13.25
2023-03-04T03:03:13.500Z,10.23
2023-03-04T03:08:09.925Z,15.68
2023-03-04T03:13:06.325Z,12.50
2023-03-04T03:18:02.708Z,13.80
2023-03-04T03:22:59.161Z,10.75
2023-03-04T03:27:55.625Z,17.75
2023-03-04T03:32:52.052Z,12.68
2023-03-04T03:37:49.080Z,16.10
2023-03-04T03:42:45.513Z,16.77
2023-03-04T03:47:41.941Z,12.85
2023-03-04T03:52:38.416Z,12.68
2023-03-04T03:57:34.811Z,15.07
2023-03-04T04:02:31.289Z,19.10
2023-03-04T04:07:27.730Z,13.93
2023-03-04T04:12:24.104Z,12.77
2023-03-04T04:17:20.505Z,15.07
2023-03-04T04:22:19.481Z,14.18
2023-03-04T04:27:15.929Z,11.30
2023-03-04T04:32:13.254Z,16.13
2023-03-04T04:37:09.718Z,11.85
2023-03-04T04:42:06.084Z,15.40
2023-03-04T04:47:02.428Z,9.57
2023-03-04T04:51:58.945Z,13.90
2023-03-04T04:56:55.468Z,12.45
2023-03-04T05:01:52.002Z,12.85
2023-03-04T05:06:48.403Z,17.88
2023-03-04T05:11:44.863Z,14.35
2023-03-04T05:16:41.263Z,8.75
2023-03-04T05:21:37.698Z,18.33
2023-03-04T05:26:34.132Z,9.90
2023-03-04T05:31:30.840Z,8.77
2023-03-04T05:36:27.335Z,12.45
2023-03-04T05:41:23.750Z,13.85
2023-03-04T05:46:26.340Z,10.73
2023-03-04T05:51:23.316Z,9.73
2023-03-04T05:56:20.614Z,11.38
2023-03-04T06:01:17.432Z,8.73
2023-03-04T06:06:13.903Z,13.65
2023-03-04T06:11:10.314Z,10.80
2023-03-04T06:16:07.238Z,12.32
2023-03-04T06:21:03.814Z,4.35
2023-03-04T06:26:01.517Z,10.18
2023-03-04T06:30:58.197Z,12.00
2023-03-04T06:35:56.983Z,13.40
2023-03-04T06:45:53.959Z,7.72
2023-03-04T06:50:50.344Z,15.45
2023-03-04T06:55:47.603Z,10.38
2023-03-04T07:00:45.038Z,12.88
2023-03-04T07:05:42.713Z,13.68
2023-03-04T07:10:39.169Z,10.23
2023-03-04T07:15:36.226Z,23.55
2023-03-04T07:20:32.695Z,10.07
2023-03-04T07:25:29.149Z,11.73
2023-03-04T07:30:25.564Z,11.45
2023-03-04T07:35:21.915Z,14.80
2023-03-04T07:40:18.515Z,7.38
2023-03-04T07:45:14.878Z,11.07
2023-03-04T07:50:12.633Z,4.97
2023-03-04T07:55:10.768Z,10.98
2023-03-04T08:00:08.000Z,9.47
2023-03-04T08:05:04.754Z,8.13
2023-03-04T08:10:01.142Z,10.10
2023-03-04T08:14:57.504Z,14.27
2023-03-04T08:19:53.873Z,8.65
2023-03-04T08:24:50.374Z,10.80
2023-03-04T08:29:46.737Z,12.77
2023-03-04T08:34:43.124Z,15.95
2023-03-04T08:39:39.487Z,8.10
2023-03-04T08:44:35.851Z,9.82
2023-03-04T08:49:32.187Z,20.00
2023-03-04T08:54:28.543Z,17.20
2023-03-04T08:59:25.238Z,7.18
2023-03-04T09:04:21.686Z,13.85
2023-03-04T09:09:18.061Z,10.98
2023-03-04T09:14:14.424Z,14.57
2023-03-04T09:19:10.868Z,15.43
2023-03-04T09:24:07.410Z,25.20
2023-03-04T09:29:04.767Z,12.40
2023-03-04T09:34:01.136Z,13.88
2023-03-04T09:39:01.742Z,9.20
2023-03-04T09:43:58.208Z,5.53
2023-03-04T09:48:56.386Z,11.43
2023-03-04T09:54:27.120Z,9.10
2023-03-04T09:59:41.524Z,9.50
2023-03-04T10:04:47.135Z,12.23
2023-03-04T10:09:53.803Z,9.63
2023-03-04T10:14:55.857Z,14.02
2023-03-04T10:20:06.895Z,9.68
2023-03-04T10:25:20.806Z,11.23
2023-03-04T10:30:32.456Z,6.65
2023-03-04T10:35:36.598Z,4.15
2023-03-04T10:40:39.258Z,7.28
2023-03-04T10:45:40.276Z,9.60
2023-03-04T10:50:36.658Z,10.63
2023-03-04T10:55:44.929Z,10.32
2023-03-04T11:00:41.704Z,4.63
2023-03-04T11:05:38.067Z,6.72
2023-03-04T11:10:37.239Z,9.55
2023-03-04T11:15:50.558Z,10.13
2023-03-04T11:20:49.374Z,12.70
2023-03-04T11:30:50.234Z,7.68
2023-03-04T11:36:25.788Z,8.43
2023-03-04T11:41:30.584Z,6.20
2023-03-04T11:46:42.378Z,4.40
2023-03-04T11:51:45.348Z,5.05
2023-03-04T11:56:52.365Z,5.80
2023-03-04T12:02:08.098Z,7.35
2023-03-04T12:07:22.368Z,8.43
2023-03-04T12:12:33.745Z,8.48
2023-03-04T12:18:00.849Z,9.65
2023-03-04T12:23:13.448Z,10.85
2023-03-04T12:28:54.953Z,6.32
2023-03-04T12:34:00.464Z,15.32
2023-03-04T12:38:56.770Z,5.55
2023-03-04T12:43:58.635Z,8.68
2023-03-04T12:49:18.023Z,7.05
2023-03-04T12:54:26.161Z,9.15
2023-03-04T12:59:26.548Z,5.65
2023-03-04T13:04:53.137Z,6.47
2023-03-04T13:10:13.179Z,12.70
2023-03-04T13:15:09.504Z,4.75
2023-03-04T13:20:33.770Z,7.13
2023-03-04T13:25:30.319Z,11.57
2023-03-04T13:30:32.820Z,6.55
2023-03-04T13:35:48.018Z,4.40
2023-03-04T13:40:44.629Z,5.18
2023-03-04T13:45:41.027Z,6.78
2023-03-04T16:21:43.026Z,8.75
2023-03-04T16:26:39.442Z,15.10
2023-03-04T16:31:36.006Z,7.93
2023-03-04T16:36:32.655Z,9.93
2023-03-04T16:41:32.856Z,5.03
2023-03-04T16:46:30.186Z,13.52
2023-03-04T16:51:27.362Z,9.23
2023-03-04T16:56:23.968Z,8.95
2023-03-04T17:01:23.380Z,7.82
2023-03-04T17:06:20.836Z,8.27
2023-03-04T17:11:20.273Z,7.75
2023-03-04T17:16:17.113Z,12.40
2023-03-04T17:21:18.095Z,8.57
2023-03-04T17:26:15.596Z,7.90
2023-03-04T17:31:14.052Z,5.93
2023-03-04T17:36:12.113Z,15.13
2023-03-04T17:41:15.824Z,4.67
2023-03-04T17:46:14.434Z,10.20
2023-03-04T17:51:11.779Z,6.05
2023-03-04T17:56:10.734Z,9.15
2023-03-04T18:01:16.875Z,11.70
2023-03-04T18:06:13.336Z,18.98
2023-03-04T18:11:10.228Z,15.40
2023-03-04T18:16:08.872Z,10.02
2023-03-04T18:21:05.882Z,13.05
2023-03-04T18:26:04.297Z,10.52
2023-03-04T18:31:01.244Z,11.02
2023-03-04T18:36:02.914Z,9.15
2023-03-04T18:41:01.324Z,19.33
2023-03-04T18:46:02.065Z,11.18
2023-03-04T18:50:58.688Z,13.77
2023-03-04T18:56:01.476Z,12.35
2023-03-04T19:00:59.649Z,7.95
2023-03-04T19:05:56.110Z,13.73
2023-03-04T19:10:52.481Z,11.68
2023-03-04T19:15:53.551Z,12.68
2023-03-04T19:20:50.172Z,7.55
2023-03-04T19:25:46.802Z,10.18
2023-03-04T19:30:43.196Z,8.50
2023-03-04T19:35:41.679Z,11.80
2023-03-04T19:40:40.451Z,12.23
2023-03-04T19:45:37.208Z,11.57
2023-03-04T19:50:33.692Z,12.18
2023-03-04T19:55:30.124Z,10.77
2023-03-04T20:00:26.571Z,11.70
2023-03-04T20:05:22.979Z,8.50
2023-03-04T20:10:19.669Z,7.20
2023-03-04T20:15:16.170Z,6.95
2023-03-04T20:20:12.600Z,16.73
2023-03-04T20:25:09.078Z,9.88
2023-03-04T20:30:05.956Z,10.43
2023-03-04T20:35:02.386Z,14.55
2023-03-04T20:39:58.981Z,13.45
2023-03-04T20:44:55.429Z,12.95
2023-03-04T20:49:51.815Z,15.82
2023-03-04T20:54:48.230Z,5.93
2023-03-04T20:59:44.614Z,7.90
2023-03-04T21:04:41.260Z,13.63
2023-03-04T21:09:37.623Z,6.53
2023-03-04T21:14:34.042Z,10.15
2023-03-04T21:19:33.617Z,11.02
2023-03-04T21:24:35.525Z,9.25
2023-03-04T21:29:32.519Z,6.63
2023-03-04T21:34:34.629Z,2.38
2023-03-04T21:39:31.951Z,5.25
2023-03-04T21:44:38.524Z,13.10
2023-03-04T21:49:44.584Z,13.45
2023-03-04T21:54:41.009Z,9.63
2023-03-04T21:59:38.642Z,7.57
2023-03-04T22:04:35.462Z,6.40
2023-03-04T22:09:32.387Z,11.55
2023-03-04T22:14:29.508Z,16.13
2023-03-04T22:19:30.356Z,11.90
2023-03-04T22:24:26.832Z,15.68
2023-03-04T22:29:23.200Z,11.38
2023-03-04T22:34:19.631Z,13.30
2023-03-04T22:39:21.104Z,7.88
2023-03-04T22:44:17.679Z,7.03
2023-03-04T22:49:14.580Z,10.43
2023-03-04T22:54:16.425Z,11.07
2023-03-04T22:59:13.601Z,8.27
2023-03-04T23:04:09.991Z,11.27
2023-03-04T23:09:06.789Z,8.15
2023-03-04T23:14:06.875Z,7.70
2023-03-04T23:19:05.080Z,11.95
2023-03-04T23:24:03.299Z,10.83
2023-03-04T23:29:01.601Z,7.72
2023-03-04T23:33:59.144Z,8.48
2023-03-04T23:38:56.308Z,14.15
2023-03-04T23:43:54.491Z,12.65
2023-03-04T23:48:52.460Z,11.47
2023-03-04T23:53:48.853Z,10.20
2023-03-04T23:58:46.235Z,18.98
